Time;durP1;ratioP1;P1;durP2;ratioP2;P2;SDS_P1;SDS_P2;PMS_P1;PMS_P2;Temp;Humidity;BMP_temperature;BMP_pressure;BME280_temperature;BME280_humidity;BME280_pressure;Samples;Min_cycle;Max_cycle;Signal;HPM_P1;HPM_P2
2021/10/05 00:01:17;;;;;;;6.85;2.83;;;;;;;18.08;40.00;102650.72;1769402;80;20998;-47
2021/10/05 00:03:44;;;;;;;3.77;2.30;;;;;;;18.06;39.95;102656.47;1768853;80;21049;-49
2021/10/05 00:06:12;;;;;;;2.85;2.30;;;;;;;18.04;39.44;102659.59;1769191;80;21002;-49
2021/10/05 00:08:38;;;;;;;5.67;2.42;;;;;;;18.02;39.01;102652.17;1769226;80;21029;-49
2021/10/05 00:11:05;;;;;;;3.95;2.40;;;;;;;18.00;38.49;102653.98;1766386;80;21004;-49
2021/10/05 00:13:32;;;;;;;6.67;2.37;;;;;;;17.98;38.20;102650.07;1765955;80;21015;-47
2021/10/05 00:15:59;;;;;;;3.98;2.33;;;;;;;17.96;38.11;102654.51;1767497;80;20997;-49
2021/10/05 00:18:25;;;;;;;3.47;2.72;;;;;;;17.95;38.12;102647.97;1767942;80;21006;-49
2021/10/05 00:20:52;;;;;;;2.77;2.22;;;;;;;17.94;38.10;102648.84;1767010;80;21501;-49
2021/10/05 00:23:18;;;;;;;6.40;2.60;;;;;;;17.90;37.88;102642.80;1780548;80;21050;-50
2021/10/05 00:25:45;;;;;;;7.87;3.00;;;;;;;17.87;37.69;102651.62;1769004;80;21513;-48
2021/10/05 00:28:11;;;;;;;4.53;2.90;;;;;;;17.85;37.67;102649.91;1773920;80;21029;-49
2021/10/05 00:30:38;;;;;;;4.53;2.50;;;;;;;17.82;37.83;102647.36;1765763;80;21044;-49
2021/10/05 00:33:05;;;;;;;7.53;2.70;;;;;;;17.81;37.92;102653.07;1765746;80;21049;-47
2021/10/05 00:35:32;;;;;;;10.53;3.08;;;;;;;17.78;37.96;102651.80;1767202;80;21029;-49
2021/10/05 00:38:00;;;;;;;7.80;2.72;;;;;;;17.77;37.96;102657.12;1769256;80;20989;-49
2021/10/05 00:40:27;;;;;;;4.92;2.70;;;;;;;17.76;38.09;102656.24;1769426;80;20986;-48
2021/10/05 00:42:54;;;;;;;6.00;3.10;;;;;;;17.76;38.24;102652.77;1768780;80;21041;-49
2021/10/05 00:45:20;;;;;;;3.08;2.83;;;;;;;17.75;38.42;102648.38;1768749;80;20994;-49
2021/10/05 00:47:47;;;;;;;5.33;3.25;;;;;;;17.76;38.47;102650.97;1770640;80;21529;-48
2021/10/05 00:50:15;;;;;;;5.40;3.20;;;;;;;17.76;38.36;102650.97;1771270;80;20938;-49
2021/10/05 00:52:43;;;;;;;5.53;3.35;;;;;;;17.76;38.26;102652.29;1771330;80;21545;-48
2021/10/05 00:55:11;;;;;;;3.30;3.00;;;;;;;17.74;38.12;102652.77;1781004;80;21624;-50
2021/10/05 00:57:38;;;;;;;4.95;2.65;;;;;;;17.74;37.81;102650.14;1772924;80;21006;-50
2021/10/05 01:00:06;;;;;;;5.03;3.33;;;;;;;17.74;37.47;102655.41;1774573;80;21037;-46
2021/10/05 01:02:33;;;;;;;5.17;3.12;;;;;;;17.74;37.62;102660.67;1771385;80;20986;-50
2021/10/05 01:05:00;;;;;;;4.50;3.22;;;;;;;17.72;37.93;102651.94;1771361;80;20993;-48
2021/10/05 01:07:27;;;;;;;4.37;3.35;;;;;;;17.72;39.16;102651.94;1773597;80;21072;-46
2021/10/05 01:09:53;;;;;;;9.08;3.70;;;;;;;17.73;40.94;102656.32;1774741;80;21449;-49
2021/10/05 01:12:19;;;;;;;7.22;3.65;;;;;;;17.73;41.91;102652.81;1774092;80;20953;-49
2021/10/05 01:14:46;;;;;;;6.83;3.70;;;;;;;17.71;42.34;102658.13;1781838;80;21033;-47
2021/10/05 01:17:13;;;;;;;6.05;3.90;;;;;;;17.69;42.66;102654.66;1774402;80;21592;-49
2021/10/05 01:19:40;;;;;;;7.33;3.80;;;;;;;17.66;42.95;102655.18;1774739;80;21018;-47
2021/10/05 01:22:07;;;;;;;7.90;3.83;;;;;;;17.62;42.95;102655.67;1774748;80;21006;-51
2021/10/05 01:24:35;;;;;;;7.40;4.30;;;;;;;17.57;42.82;102654.91;1774089;80;21049;-49
2021/10/05 01:27:03;;;;;;;6.80;4.00;;;;;;;17.53;43.02;102661.14;1773879;80;21553;-47
2021/10/05 01:29:31;;;;;;;5.70;4.12;;;;;;;17.49;43.75;102656.84;1771739;80;21441;-50
2021/10/05 01:32:02;;;;;;;7.75;4.35;;;;;;;17.44;44.38;102667.86;1771255;80;21008;-52
2021/10/05 01:34:29;;;;;;;8.60;4.92;;;;;;;17.37;44.82;102670.18;1771891;80;21017;-49
2021/10/05 01:36:58;;;;;;;6.33;4.85;;;;;;;17.30;45.26;102668.59;1774826;80;21033;-50
2021/10/05 01:39:28;;;;;;;6.22;5.17;;;;;;;17.25;45.66;102670.42;1772796;80;20985;-50
2021/10/05 01:41:59;;;;;;;6.85;5.03;;;;;;;17.19;45.88;102663.96;1774659;80;21013;-48
2021/10/05 01:44:25;;;;;;;7.40;5.20;;;;;;;17.11;45.95;102668.50;1665101;85;21082;-49
2021/10/05 01:46:52;;;;;;;14.63;5.30;;;;;;;17.06;46.03;102676.94;1663565;85;21090;-50
2021/10/05 01:49:23;;;;;;;6.47;5.30;;;;;;;17.00;46.09;102681.00;1628578;87;21585;-50
2021/10/05 01:51:50;;;;;;;11.05;5.15;;;;;;;16.94;46.18;102682.39;1624701;87;21046;-49
2021/10/05 01:54:17;;;;;;;9.08;5.25;;;;;;;16.92;46.34;102684.19;1630896;87;21038;-47
2021/10/05 01:56:45;;;;;;;13.25;5.72;;;;;;;16.89;46.76;102685.56;1629281;86;21026;-49
2021/10/05 01:59:12;;;;;;;8.25;6.60;;;;;;;16.85;46.95;102682.57;1628651;87;21082;-46
2021/10/05 02:01:39;;;;;;;8.35;5.65;;;;;;;16.80;47.05;102690.97;1628733;87;21058;-50
2021/10/05 02:04:07;;;;;;;7.85;6.25;;;;;;;16.76;47.10;102693.23;1628849;87;21755;-49
2021/10/05 02:06:34;;;;;;;13.08;6.75;;;;;;;16.72;47.27;102688.92;1628742;87;21086;-49
2021/10/05 02:09:04;;;;;;;9.90;6.40;;;;;;;16.67;47.56;102686.83;1630597;86;21042;-50
2021/10/05 02:11:31;;;;;;;11.90;7.00;;;;;;;16.62;47.93;102685.58;1631218;87;21054;-50
2021/10/05 02:13:58;;;;;;;12.55;7.45;;;;;;;16.59;48.30;102687.41;1627846;87;21015;-51
2021/10/05 02:16:25;;;;;;;11.88;7.42;;;;;;;16.56;48.48;102683.49;1651814;85;21130;-49
2021/10/05 02:18:51;;;;;;;9.53;7.20;;;;;;;16.54;48.70;102681.34;1656417;85;21067;-49
2021/10/05 02:21:18;;;;;;;11.28;7.00;;;;;;;16.53;48.79;102684.84;1656254;85;21048;-49
2021/10/05 02:26:32;;;;;;;9.20;6.97;;;;;;;16.49;48.56;102675.23;1652668;85;21094;-50
2021/10/05 02:28:59;;;;;;;13.72;7.72;;;;;;;16.47;48.41;102676.58;1650915;85;21055;-50
2021/10/05 02:31:26;;;;;;;17.30;7.95;;;;;;;16.44;48.37;102683.66;1656161;85;21607;-46
2021/10/05 02:33:53;;;;;;;14.93;7.95;;;;;;;16.42;48.30;102681.50;1655131;87;21032;-49
2021/10/05 02:36:19;;;;;;;13.62;7.65;;;;;;;16.40;48.25;102683.28;1656098;85;21056;-50
2021/10/05 02:38:47;;;;;;;10.00;7.83;;;;;;;16.39;48.17;102685.47;1656185;85;21055;-49
2021/10/05 02:41:14;;;;;;;15.53;8.03;;;;;;;16.36;48.06;102686.84;1656424;85;21557;-49
2021/10/05 02:43:41;;;;;;;12.68;7.78;;;;;;;16.33;48.28;102686.88;1656240;85;21505;-49
2021/10/05 02:46:08;;;;;;;13.60;7.97;;;;;;;16.30;48.71;102691.29;1656441;85;20989;-49
2021/10/05 02:48:36;;;;;;;12.58;8.33;;;;;;;16.26;49.04;102693.98;1747379;79;21033;-46
2021/10/05 02:51:03;;;;;;;11.45;8.00;;;;;;;16.24;49.17;102694.01;1770219;80;21026;-49
2021/10/05 02:53:29;;;;;;;14.30;7.65;;;;;;;16.22;48.93;102698.41;1776124;80;21049;-49
2021/10/05 02:55:56;;;;;;;12.85;7.67;;;;;;;16.21;48.78;102698.45;1768861;80;21054;-50
2021/10/05 02:58:23;;;;;;;9.83;7.70;;;;;;;16.19;48.55;102694.53;1766711;80;20979;-50
2021/10/05 03:00:49;;;;;;;11.43;7.28;;;;;;;16.17;48.34;102702.88;1765810;80;21442;-49
2021/10/05 03:03:16;;;;;;;9.40;7.10;;;;;;;16.14;48.04;102705.54;1770329;80;21029;-51
2021/10/05 03:05:42;;;;;;;9.90;7.47;;;;;;;16.10;47.91;102706.47;1766765;80;21029;-49
2021/10/05 03:08:09;;;;;;;11.68;8.48;;;;;;;16.07;47.86;102707.81;1765828;80;20950;-50
2021/10/05 03:10:36;;;;;;;10.98;7.45;;;;;;;16.03;48.00;102712.68;1767150;80;21070;-47
2021/10/05 03:13:04;;;;;;;10.88;7.17;;;;;;;16.02;47.96;102716.65;1768759;80;21021;-49
2021/10/05 03:15:31;;;;;;;13.75;9.00;;;;;;;15.98;47.95;102708.39;1779339;80;20959;-49
2021/10/05 03:17:58;;;;;;;11.73;7.67;;;;;;;15.95;47.96;102710.60;1767022;80;21458;-49
2021/10/05 03:20:24;;;;;;;12.20;7.40;;;;;;;15.91;47.89;102708.91;1765894;80;20998;-47
2021/10/05 03:22:51;;;;;;;8.63;7.72;;;;;;;15.89;47.62;102713.78;1765886;80;21536;-49
2021/10/05 03:25:17;;;;;;;10.38;7.53;;;;;;;15.84;47.47;102711.20;1768102;80;20993;-49
2021/10/05 03:27:44;;;;;;;11.95;8.03;;;;;;;15.81;47.46;102718.22;1769217;80;21073;-50
2021/10/05 03:30:13;;;;;;;10.48;7.67;;;;;;;15.78;47.63;102723.53;1769691;80;20970;-49
2021/10/05 03:32:39;;;;;;;10.60;7.37;;;;;;;15.75;47.71;102724.43;1771951;80;21490;-50
2021/10/05 03:35:07;;;;;;;12.90;7.67;;;;;;;15.75;47.69;102728.80;1768117;80;21103;-52
2021/10/05 03:37:34;;;;;;;14.47;7.58;;;;;;;15.74;47.57;102730.58;1767444;80;21463;-50
2021/10/05 03:40:00;;;;;;;10.78;7.85;;;;;;;15.72;47.27;102734.11;1767063;80;20987;-48
2021/10/05 03:42:27;;;;;;;8.90;7.17;;;;;;;15.66;46.96;102735.02;1765922;80;20978;-50
2021/10/05 03:44:54;;;;;;;10.88;7.08;;;;;;;15.62;46.77;102729.38;1766163;80;20982;-49
2021/10/05 03:47:20;;;;;;;14.78;7.78;;;;;;;15.56;46.68;102730.77;1768893;80;20989;-49
2021/10/05 03:49:48;;;;;;;12.60;7.40;;;;;;;15.51;46.70;102726.47;1773002;80;21068;-48
2021/10/05 03:52:14;;;;;;;9.40;7.40;;;;;;;15.47;46.71;102729.58;1782037;80;21002;-49
2021/10/05 03:54:42;;;;;;;13.30;8.43;;;;;;;15.43;46.71;102734.42;1770058;80;20966;-49
2021/10/05 03:57:09;;;;;;;8.50;7.15;;;;;;;15.39;46.85;102732.69;1770284;80;21041;-49
2021/10/05 03:59:36;;;;;;;14.60;8.03;;;;;;;15.34;47.10;102736.66;1772662;80;20982;-48
2021/10/05 04:02:03;;;;;;;10.72;7.87;;;;;;;15.33;47.26;102743.24;1780087;80;21470;-51
2021/10/05 04:04:31;;;;;;;12.20;8.03;;;;;;;15.30;47.28;102740.64;1771706;80;20998;-49
2021/10/05 04:06:59;;;;;;;14.20;7.75;;;;;;;15.28;47.42;102738.03;1769974;80;21001;-49
2021/10/05 04:09:26;;;;;;;11.08;8.03;;;;;;;15.27;47.45;102744.16;1770175;80;21038;-46
2021/10/05 04:11:52;;;;;;;12.47;7.78;;;;;;;15.27;47.40;102752.02;1778775;80;20994;-50
2021/10/05 04:14:19;;;;;;;12.25;7.60;;;;;;;15.26;47.51;102752.04;1776966;80;20985;-49
2021/10/05 04:16:45;;;;;;;10.72;8.75;;;;;;;15.27;47.72;102759.89;1766971;80;20969;-49
2021/10/05 04:19:12;;;;;;;10.60;8.70;;;;;;;15.28;47.92;102763.39;1773112;80;21498;-49
2021/10/05 04:21:39;;;;;;;12.07;7.33;;;;;;;15.26;47.87;102765.16;1772150;80;20994;-50
2021/10/05 04:24:05;;;;;;;12.93;7.85;;;;;;;15.23;47.60;102767.80;1770089;80;21533;-50
2021/10/05 04:26:32;;;;;;;12.00;7.83;;;;;;;15.20;47.48;102767.84;1770116;80;21027;-51
2021/10/05 04:28:59;;;;;;;13.70;8.38;;;;;;;15.17;47.50;102767.84;1774171;80;21034;-49
2021/10/05 04:31:26;;;;;;;9.78;7.85;;;;;;;15.14;47.52;102762.65;1775617;80;20993;-49
2021/10/05 04:33:52;;;;;;;12.93;8.35;;;;;;;15.12;47.69;102764.41;1773331;80;21029;-49
2021/10/05 04:36:18;;;;;;;11.33;7.95;;;;;;;15.13;47.82;102766.14;1772880;80;21030;-49
2021/10/05 04:38:46;;;;;;;10.48;7.92;;;;;;;15.13;47.93;102768.76;1772162;80;21045;-47
2021/10/05 04:41:12;;;;;;;11.60;7.60;;;;;;;15.14;47.90;102766.58;1770004;80;21001;-49
2021/10/05 04:43:39;;;;;;;12.45;8.20;;;;;;;15.12;47.80;102773.59;1770324;80;20966;-49
2021/10/05 04:46:05;;;;;;;11.73;7.85;;;;;;;15.11;47.73;102776.65;1772617;80;21068;-49
2021/10/05 04:48:32;;;;;;;13.28;8.18;;;;;;;15.11;47.81;102783.64;1769404;80;21003;-49
2021/10/05 04:50:59;;;;;;;12.45;7.65;;;;;;;15.11;48.05;102782.33;1776963;80;21008;-49
2021/10/05 04:53:25;;;;;;;11.97;7.17;;;;;;;15.10;48.23;102781.48;1756152;80;21026;-49
2021/10/05 04:55:53;;;;;;;11.53;8.03;;;;;;;15.11;48.00;102786.26;1768172;80;21084;-49
2021/10/05 04:58:19;;;;;;;12.25;8.48;;;;;;;15.12;48.11;102785.39;1768434;80;21045;-48
2021/10/05 05:00:46;;;;;;;9.48;8.13;;;;;;;15.11;48.08;102786.26;1768307;80;21076;-52
2021/10/05 05:03:12;;;;;;;11.75;8.05;;;;;;;15.11;48.25;102781.89;1769059;80;21025;-49
2021/10/05 05:05:40;;;;;;;14.28;8.65;;;;;;;15.13;48.35;102781.87;1769292;80;21578;-49
2021/10/05 05:08:08;;;;;;;13.43;9.13;;;;;;;15.13;48.47;102779.25;1768484;79;21042;-49
2021/10/05 05:10:35;;;;;;;13.22;8.10;;;;;;;15.13;48.59;102781.87;1769017;80;21058;-47
2021/10/05 05:13:02;;;;;;;12.43;8.63;;;;;;;15.13;48.76;102783.18;1766339;80;21001;-49
2021/10/05 05:15:28;;;;;;;11.90;8.80;;;;;;;15.14;48.88;102789.75;1769267;80;21018;-49
2021/10/05 05:17:55;;;;;;;10.38;8.78;;;;;;;15.16;49.00;102784.48;1776875;80;21540;-49
2021/10/05 05:20:22;;;;;;;12.33;8.65;;;;;;;15.18;49.04;102785.34;1765446;80;21021;-49
2021/10/05 05:22:49;;;;;;;16.80;8.48;;;;;;;15.21;49.13;102786.61;1765955;80;21044;-50
2021/10/05 05:25:16;;;;;;;14.35;9.28;;;;;;;15.25;49.24;102800.16;1768669;80;20973;-49
2021/10/05 05:27:43;;;;;;;12.43;9.13;;;;;;;15.30;49.41;102798.34;1780940;80;21573;-49
2021/10/05 05:30:10;;;;;;;16.77;9.15;;;;;;;15.35;49.52;102794.78;1767276;80;21043;-50
2021/10/05 05:32:37;;;;;;;13.75;8.43;;;;;;;15.41;49.56;102801.75;1766795;80;21546;-49
2021/10/05 05:35:06;;;;;;;14.95;8.85;;;;;;;15.46;49.58;102803.47;1765872;80;20989;-49
2021/10/05 05:37:33;;;;;;;13.35;8.73;;;;;;;15.52;49.59;102802.53;1766398;80;21380;-49
2021/10/05 05:40:00;;;;;;;11.08;8.08;;;;;;;15.55;49.69;102799.89;1762144;80;21009;-47
2021/10/05 05:42:27;;;;;;;16.57;8.90;;;;;;;15.59;49.81;102808.16;1769343;80;21461;-49
2021/10/05 05:44:53;;;;;;;10.10;8.03;;;;;;;15.64;49.86;102809.44;1778793;80;21042;-49
2021/10/05 05:47:20;;;;;;;14.50;8.90;;;;;;;15.68;49.94;102808.08;1767128;80;21013;-49
2021/10/05 05:49:47;;;;;;;12.78;8.28;;;;;;;15.74;50.03;102808.45;1773211;80;21017;-50
2021/10/05 05:52:13;;;;;;;13.18;8.60;;;;;;;15.79;50.01;102818.00;1774554;80;21017;-49
2021/10/05 05:54:40;;;;;;;12.20;8.28;;;;;;;15.83;50.04;102819.70;1774978;80;21080;-49
2021/10/05 05:57:07;;;;;;;11.25;7.70;;;;;;;15.88;49.91;102808.73;1774094;80;21517;-47
2021/10/05 05:59:33;;;;;;;11.83;8.35;;;;;;;15.95;49.76;102811.69;1772261;80;21513;-50
2021/10/05 06:02:01;;;;;;;10.45;8.08;;;;;;;16.02;49.80;102821.25;1770978;80;21048;-48
2021/10/05 06:04:27;;;;;;;11.22;8.10;;;;;;;16.15;49.76;102818.92;1771990;80;21592;-50
2021/10/05 06:06:54;;;;;;;14.05;8.08;;;;;;;16.29;49.76;102818.73;1774227;80;21018;-47
2021/10/05 06:09:21;;;;;;;16.52;8.95;;;;;;;16.43;49.66;102818.11;1778942;80;21005;-49
2021/10/05 06:11:50;;;;;;;12.33;8.35;;;;;;;16.55;49.21;102828.48;1767984;80;21001;-51
2021/10/05 06:14:17;;;;;;;15.38;8.65;;;;;;;16.65;49.01;102820.05;1774468;80;20993;-47
2021/10/05 06:16:43;;;;;;;14.85;8.33;;;;;;;16.74;48.96;102829.97;1776544;80;20965;-49
2021/10/05 06:19:10;;;;;;;12.53;9.83;;;;;;;16.86;48.87;102830.22;1774482;80;20959;-50
2021/10/05 06:21:37;;;;;;;13.32;10.55;;;;;;;16.96;48.69;102833.17;1777606;80;21072;-50
2021/10/05 06:24:04;;;;;;;19.07;10.53;;;;;;;17.06;48.57;102832.12;1772994;80;20973;-50
2021/10/05 06:26:32;;;;;;;15.13;10.32;;;;;;;17.16;48.39;102831.09;1778760;80;21529;-48
2021/10/05 06:28:58;;;;;;;16.40;9.50;;;;;;;17.24;48.40;102831.83;1774462;80;21041;-50
2021/10/05 06:31:24;;;;;;;11.63;8.30;;;;;;;17.29;48.65;102834.39;1773461;80;21589;-47
2021/10/05 06:33:51;;;;;;;16.82;9.05;;;;;;;17.35;48.83;102841.70;1770983;80;21009;-47
2021/10/05 06:36:18;;;;;;;11.55;7.90;;;;;;;17.41;48.83;102840.31;1771385;80;20990;-50
2021/10/05 06:38:44;;;;;;;15.48;7.20;;;;;;;17.48;48.84;102841.93;1774504;80;20966;-50
2021/10/05 06:41:11;;;;;;;13.28;7.78;;;;;;;17.59;48.66;102849.68;1772369;80;21517;-48
2021/10/05 06:43:38;;;;;;;13.20;8.05;;;;;;;17.67;48.45;102852.60;1774133;80;20975;-49
2021/10/05 06:46:05;;;;;;;12.80;7.35;;;;;;;17.78;48.38;102858.52;1785143;80;20965;-47
2021/10/05 06:48:31;;;;;;;8.70;6.33;;;;;;;17.88;48.32;102861.44;1770411;80;21509;-47
2021/10/05 06:50:57;;;;;;;10.60;7.40;;;;;;;17.99;48.04;102861.67;1764608;80;21550;-47
2021/10/05 06:53:24;;;;;;;9.23;6.45;;;;;;;18.10;47.92;102868.91;1765183;80;21013;-49
2021/10/05 06:55:51;;;;;;;14.18;7.25;;;;;;;18.16;47.61;102864.83;1766289;80;21029;-50
2021/10/05 06:58:17;;;;;;;14.83;7.67;;;;;;;18.22;47.47;102871.29;1762320;80;21438;-50
2021/10/05 07:00:43;;;;;;;9.73;6.55;;;;;;;18.26;47.56;102870.36;1769303;80;20988;-50
2021/10/05 07:03:10;;;;;;;10.50;6.90;;;;;;;18.31;47.50;102872.44;1769311;80;20926;-48
2021/10/05 07:05:37;;;;;;;10.32;7.60;;;;;;;18.33;47.39;102875.91;1775768;80;21506;-50
2021/10/05 07:08:08;;;;;;;13.83;7.37;;;;;;;18.35;47.43;102871.48;1771088;80;21077;-50
2021/10/05 07:10:37;;;;;;;11.05;6.47;;;;;;;18.37;47.35;102878.91;1768977;80;21029;-49
2021/10/05 07:13:05;;;;;;;10.70;5.72;;;;;;;18.38;47.20;102875.38;1769271;80;21017;-50
2021/10/05 07:15:32;;;;;;;7.90;5.12;;;;;;;18.42;46.33;102881.84;1775222;80;21023;-47
2021/10/05 07:17:59;;;;;;;9.83;4.95;;;;;;;18.47;45.90;102876.08;1765876;80;21017;-47
2021/10/05 07:20:27;;;;;;;5.37;4.50;;;;;;;18.52;45.33;102878.63;1766712;80;21009;-46
2021/10/05 07:22:54;;;;;;;7.97;4.12;;;;;;;18.59;44.73;102882.85;1754105;80;21044;-50
2021/10/05 07:25:20;;;;;;;4.87;3.40;;;;;;;18.63;43.83;102880.56;1766969;80;21501;-47
2021/10/05 07:30:17;;;;;;;5.70;3.90;;;;;;;18.69;43.31;102876.03;1728013;83;21102;-50
2021/10/05 07:32:44;;;;;;;7.67;3.70;;;;;;;18.74;43.38;102889.12;1728317;83;21061;-50
2021/10/05 07:35:12;;;;;;;7.75;3.92;;;;;;;18.79;43.50;102896.94;1728298;83;21026;-51
2021/10/05 07:37:38;;;;;;;5.70;4.05;;;;;;;18.81;42.79;102893.38;1728286;83;21023;-50
2021/10/05 07:40:08;;;;;;;9.05;4.40;;;;;;;18.86;42.78;102891.93;1728236;83;21050;-49
2021/10/05 07:42:35;;;;;;;7.58;3.98;;;;;;;18.90;43.25;102898.43;1728443;83;21030;-50
2021/10/05 07:45:02;;;;;;;8.55;4.28;;;;;;;18.94;43.28;102890.86;1728431;83;21018;-50
2021/10/05 07:47:30;;;;;;;9.48;4.22;;;;;;;18.98;43.02;102893.84;1728191;83;21011;-50
2021/10/05 07:49:56;;;;;;;5.08;4.03;;;;;;;19.01;42.86;102891.15;1728496;83;21041;-51
2021/10/05 07:52:23;;;;;;;6.72;4.17;;;;;;;19.06;42.50;102892.38;1728335;83;21045;-51
2021/10/05 07:54:49;;;;;;;12.73;3.95;;;;;;;19.07;42.01;102897.61;1728554;83;20990;-48
2021/10/05 07:57:16;;;;;;;5.12;3.30;;;;;;;19.10;41.49;102888.75;1728543;83;21065;-49
2021/10/05 07:59:42;;;;;;;3.50;3.10;;;;;;;19.12;41.57;102891.78;1728610;83;21046;-51
2021/10/05 08:02:09;;;;;;;5.87;3.72;;;;;;;19.14;41.45;102891.30;1728111;83;21025;-50
2021/10/05 08:04:35;;;;;;;5.58;3.25;;;;;;;19.18;41.21;102891.64;1728546;83;21597;-52
2021/10/05 08:07:04;;;;;;;6.00;3.22;;;;;;;19.22;40.97;102899.02;1728136;83;21065;-52
2021/10/05 08:09:32;;;;;;;3.40;2.83;;;;;;;19.24;41.02;102894.13;1728303;83;21238;-51
2021/10/05 08:11:58;;;;;;;5.17;3.20;;;;;;;19.28;40.47;102902.39;1728208;83;21502;-50
2021/10/05 08:14:25;;;;;;;5.30;3.05;;;;;;;19.32;40.25;102898.77;1728378;83;21015;-48
2021/10/05 08:16:52;;;;;;;4.80;3.33;;;;;;;19.35;40.04;102893.44;1728157;83;21057;-50
2021/10/05 08:19:18;;;;;;;3.77;3.20;;;;;;;19.39;40.10;102889.81;1728605;83;21002;-50
2021/10/05 08:21:46;;;;;;;9.58;3.00;;;;;;;19.43;40.07;102890.14;1728049;83;21045;-50
2021/10/05 08:24:13;;;;;;;7.87;3.00;;;;;;;19.47;39.74;102893.12;1728543;83;21601;-51
2021/10/05 08:26:39;;;;;;;4.40;2.70;;;;;;;19.51;39.49;102890.42;1746357;80;21029;-48
2021/10/05 08:29:06;;;;;;;5.65;2.50;;;;;;;19.55;39.06;102890.76;1777422;80;21012;-50
2021/10/05 08:31:32;;;;;;;8.73;5.87;;;;;;;19.58;38.80;102895.98;1779424;80;21480;-50
2021/10/05 08:33:59;;;;;;;5.58;3.60;;;;;;;19.60;38.82;102887.56;1776720;80;20990;-50
2021/10/05 08:36:26;;;;;;;4.03;2.67;;;;;;;19.63;38.88;102892.75;1777561;80;20952;-46
2021/10/05 08:38:52;;;;;;;3.00;2.30;;;;;;;19.64;38.38;102890.54;1784781;80;21002;-48
2021/10/05 08:41:19;;;;;;;4.83;2.50;;;;;;;19.66;38.15;102891.37;1782416;80;20987;-49
2021/10/05 08:43:46;;;;;;;4.30;2.35;;;;;;;19.68;38.12;102893.52;1786917;80;21002;-48
2021/10/05 08:46:13;;;;;;;3.85;2.58;;;;;;;19.72;38.01;102889.88;1776157;80;20997;-50
2021/10/05 08:48:41;;;;;;;3.87;2.60;;;;;;;19.74;38.19;102893.36;1772401;80;21070;-49
2021/10/05 08:51:08;;;;;;;3.35;2.25;;;;;;;19.75;38.40;102888.02;1776455;80;21108;-49
2021/10/05 08:53:37;;;;;;;4.00;2.90;;;;;;;19.79;38.33;102892.31;1765511;80;21018;-49
2021/10/05 08:56:06;;;;;;;3.62;2.72;;;;;;;19.81;38.10;102897.55;1773435;80;20966;-49
2021/10/05 08:58:33;;;;;;;3.15;2.83;;;;;;;19.82;38.27;102896.22;1774349;80;21001;-49
2021/10/05 09:01:11;;;;;;;10.15;3.00;;;;;;;19.85;38.71;102895.23;1765566;80;21010;-46
2021/10/05 09:03:40;;;;;;;11.22;3.20;;;;;;;19.87;38.58;102894.75;1773407;80;21046;-48
2021/10/05 09:06:13;;;;;;;4.42;3.35;;;;;;;19.90;38.36;102889.39;1763617;80;21006;-49
2021/10/05 09:08:42;;;;;;;4.15;3.47;;;;;;;19.91;38.48;102893.75;1749246;82;21049;-49
2021/10/05 09:11:10;;;;;;;4.78;3.83;;;;;;;19.91;38.44;102888.47;1750016;82;21062;-46
2021/10/05 09:13:40;;;;;;;5.15;3.62;;;;;;;19.91;38.77;102892.44;1745068;82;21017;-49
2021/10/05 09:16:29;;;;;;;4.70;3.35;;;;;;;19.91;39.33;102893.75;1753015;81;21597;-48
2021/10/05 09:19:13;;;;;;;7.30;3.67;;;;;;;19.91;39.27;102884.06;1752772;82;21001;-48
2021/10/05 09:21:52;;;;;;;4.42;3.50;;;;;;;19.93;39.34;102884.02;1644213;87;21547;-50
2021/10/05 09:24:32;;;;;;;6.42;3.40;;;;;;;19.94;38.92;102880.48;1663448;85;21575;-46
2021/10/05 09:27:00;;;;;;;15.88;4.53;;;;;;;19.92;39.39;102886.25;1652053;86;21077;-49
2021/10/05 09:29:36;;;;;;;5.30;4.10;;;;;;;19.90;39.92;102892.03;1654732;86;21016;-48
2021/10/05 09:32:09;;;;;;;6.60;3.85;;;;;;;19.91;39.85;102899.04;1653875;86;21559;-49
2021/10/05 09:34:50;;;;;;;5.58;3.62;;;;;;;19.92;39.39;102896.83;1636060;87;21072;-48
2021/10/05 09:37:28;;;;;;;6.97;3.65;;;;;;;19.94;38.51;102893.69;1655621;86;21048;-50
2021/10/05 09:40:03;;;;;;;3.77;2.90;;;;;;;19.96;37.94;102899.80;1654925;86;21034;-48
2021/10/05 09:42:44;;;;;;;5.62;3.02;;;;;;;19.96;37.86;102906.41;1573112;90;21093;-49
2021/10/05 09:45:21;;;;;;;4.87;2.95;;;;;;;19.98;38.20;102904.14;1583395;90;21129;-50
2021/10/05 09:47:52;;;;;;;8.78;3.47;;;;;;;19.99;37.33;102905.86;1550391;92;21102;-49
2021/10/05 09:50:28;;;;;;;5.05;3.20;;;;;;;19.98;37.44;102904.14;1550373;92;21137;-50
2021/10/05 09:55:29;;;;;;;12.82;3.22;;;;;;;20.00;37.11;102898.80;1502513;95;21162;-47
2021/10/05 09:57:56;;;;;;;7.22;3.40;;;;;;;20.01;36.61;102898.75;1492718;93;21165;-46
2021/10/05 10:00:26;;;;;;;3.98;3.30;;;;;;;20.01;36.81;102902.72;1550658;92;22191;-52
2021/10/05 10:02:53;;;;;;;5.17;3.20;;;;;;;20.04;36.94;102900.45;1533892;93;21533;-50
2021/10/05 10:05:23;;;;;;;4.87;2.70;;;;;;;20.05;36.57;102907.49;1549198;91;21045;-47
2021/10/05 10:07:56;;;;;;;3.92;3.08;;;;;;;20.08;36.62;102900.34;1569735;91;21586;-50
2021/10/05 10:10:28;;;;;;;4.03;3.30;;;;;;;20.12;36.16;102904.63;1569763;91;21025;-49
2021/10/05 10:13:01;;;;;;;7.10;3.52;;;;;;;20.17;36.30;102900.55;1517262;94;21089;-49
2021/10/05 10:15:36;;;;;;;4.55;3.15;;;;;;;20.20;36.06;102893.87;1517915;94;21113;-49
2021/10/05 10:18:16;;;;;;;5.92;3.35;;;;;;;20.23;35.69;102899.08;1520735;94;21089;-49
2021/10/05 10:20:50;;;;;;;3.92;3.08;;;;;;;20.24;35.54;102892.87;1521984;94;21142;-50
2021/10/05 10:23:23;;;;;;;2.98;2.65;;;;;;;20.29;35.33;102893.63;1487466;96;21043;-50
2021/10/05 10:26:05;;;;;;;5.15;2.90;;;;;;;20.32;34.69;102894.84;1515053;94;21759;-47
2021/10/05 10:28:39;;;;;;;4.15;3.27;;;;;;;20.34;34.43;102887.73;1534157;92;21131;-46
2021/10/05 10:31:09;;;;;;;4.75;2.77;;;;;;;20.34;34.08;102887.73;1531628;92;21044;-48
2021/10/05 10:33:49;;;;;;;7.90;2.98;;;;;;;20.37;33.04;102886.33;1534181;93;21573;-48
2021/10/05 10:36:34;;;;;;;5.67;3.27;;;;;;;20.37;32.81;102885.02;1527305;93;21085;-47
2021/10/05 10:39:17;;;;;;;5.90;2.95;;;;;;;20.37;33.44;102878.41;1511021;92;21171;-49
2021/10/05 10:41:54;;;;;;;4.05;3.15;;;;;;;20.38;33.15;102883.25;1489235;96;21097;-48
2021/10/05 10:44:30;;;;;;;5.62;2.83;;;;;;;20.39;32.85;102879.22;1474651;96;21081;-47
2021/10/05 10:47:11;;;;;;;4.72;2.60;;;;;;;20.43;32.33;102880.87;1465075;97;21600;-48
2021/10/05 10:49:38;;;;;;;4.45;2.98;;;;;;;20.47;31.58;102879.86;1457525;97;21148;-50
2021/10/05 10:52:05;;;;;;;4.97;3.72;;;;;;;20.47;31.67;102870.61;1443711;98;21491;-49
2021/10/05 10:54:34;;;;;;;3.47;2.67;;;;;;;20.50;31.80;102871.86;1428078;100;21139;-49
2021/10/05 10:57:06;;;;;;;7.58;3.02;;;;;;;20.55;31.79;102865.95;1428384;100;21091;-46
2021/10/05 10:59:33;;;;;;;6.35;3.37;;;;;;;20.57;31.84;102864.13;1428299;100;21063;-49
2021/10/05 11:02:05;;;;;;;6.10;3.17;;;;;;;20.60;31.70;102869.80;1428212;100;21104;-46
2021/10/05 11:04:33;;;;;;;3.47;2.40;;;;;;;20.61;31.77;102863.13;1428526;100;21145;-47
2021/10/05 11:07:00;;;;;;;3.30;2.47;;;;;;;20.64;31.46;102869.66;1428141;100;21112;-48
2021/10/05 11:09:36;;;;;;;4.20;2.72;;;;;;;20.68;31.18;102869.10;1429968;100;21641;-49
2021/10/05 11:12:07;;;;;;;5.20;3.00;;;;;;;20.70;31.09;102864.18;1431432;99;21171;-49
2021/10/05 11:14:38;;;;;;;4.80;2.67;;;;;;;20.75;31.47;102861.41;1416119;100;21128;-48
2021/10/05 11:17:08;;;;;;;7.12;2.80;;;;;;;20.77;30.76;102868.35;1416496;100;21127;-49
2021/10/05 11:19:40;;;;;;;4.62;3.17;;;;;;;20.76;31.03;102861.34;1426148;99;21043;-50
2021/10/05 11:22:12;;;;;;;5.83;2.92;;;;;;;20.77;31.28;102865.70;1444315;97;21866;-50
2021/10/05 11:24:47;;;;;;;6.20;3.27;;;;;;;20.79;31.39;102855.10;1486505;95;21044;-47
2021/10/05 11:27:19;;;;;;;5.58;2.98;;;;;;;20.80;31.40;102857.69;1500663;95;21064;-50
2021/10/05 11:29:46;;;;;;;5.37;2.72;;;;;;;20.82;31.19;102855.86;1395648;101;21129;-47
2021/10/05 11:32:18;;;;;;;4.97;2.67;;;;;;;20.83;30.61;102857.61;1383493;103;21284;-50
2021/10/05 11:34:45;;;;;;;6.45;2.70;;;;;;;20.85;29.90;102856.23;1428476;99;21641;-47